EZY129 LFLL-LSZH
Flight info
| Callsign | EZY129 |
|---|---|
| Flight time | 0h 45m |
| Altitude | 22000 |
| Route | RISOR T45 ASLEG/N0352F240 T45 VENAT Z67 LAMUR Z57 DOPIL |
| Aircraft | A20N/M-SDE2E3FGHIRWXY/LB1 |
Departure
| Time | 2026-05-05 20:41 |
|---|---|
| Airport | Lyon Saint-Exupéry Airport (LFLL) |
Arrival
| Time | 2026-05-05 21:26 |
|---|---|
| Airport | Zürich Airport (LSZH) |
| Time | Latitude | Longitude | Altitude | Speed | Heading |
|---|---|---|---|---|---|
| 2026-05-05 20:08 | 45.71505 | 5.08231 | 802 ft | 0 kts | 16° |
| 2026-05-05 20:32 | 45.71496 | 5.08228 | 802 ft | 2 kts | 16° |
| 2026-05-05 20:32 | 45.71487 | 5.08224 | 802 ft | 2 kts | 16° |
| 2026-05-05 20:32 | 45.71467 | 5.08216 | 802 ft | 2 kts | 16° |
| 2026-05-05 20:32 | 45.71456 | 5.08211 | 802 ft | 2 kts | 16° |
| 2026-05-05 20:33 | 45.71443 | 5.08205 | 802 ft | 2 kts | 37° |
| 2026-05-05 20:33 | 45.71433 | 5.08189 | 802 ft | 2 kts | 68° |
| 2026-05-05 20:33 | 45.71430 | 5.08170 | 802 ft | 1 kts | 97° |
| 2026-05-05 20:33 | 45.71430 | 5.08166 | 802 ft | 0 kts | 102° |
| 2026-05-05 20:35 | 45.71428 | 5.08180 | 802 ft | 3 kts | 101° |
| 2026-05-05 20:35 | 45.71421 | 5.08235 | 802 ft | 7 kts | 100° |
| 2026-05-05 20:36 | 45.71414 | 5.08325 | 802 ft | 10 kts | 83° |
| 2026-05-05 20:36 | 45.71420 | 5.08438 | 802 ft | 12 kts | 84° |
| 2026-05-05 20:36 | 45.71465 | 5.08509 | 802 ft | 10 kts | 343° |
| 2026-05-05 20:36 | 45.71541 | 5.08505 | 802 ft | 13 kts | 5° |
| 2026-05-05 20:37 | 45.71648 | 5.08498 | 802 ft | 17 kts | 355° |
| 2026-05-05 20:37 | 45.71774 | 5.08477 | 802 ft | 19 kts | 358° |
| 2026-05-05 20:37 | 45.71910 | 5.08468 | 802 ft | 20 kts | 356° |
| 2026-05-05 20:37 | 45.72055 | 5.08449 | 802 ft | 21 kts | 354° |
| 2026-05-05 20:38 | 45.72205 | 5.08431 | 802 ft | 22 kts | 355° |
| 2026-05-05 20:38 | 45.72362 | 5.08410 | 802 ft | 23 kts | 354° |
| 2026-05-05 20:38 | 45.72526 | 5.08392 | 802 ft | 24 kts | 355° |
| 2026-05-05 20:38 | 45.72705 | 5.08369 | 802 ft | 28 kts | 356° |
| 2026-05-05 20:39 | 45.72912 | 5.08344 | 802 ft | 31 kts | 356° |
| 2026-05-05 20:39 | 45.73138 | 5.08316 | 802 ft | 34 kts | 354° |
| 2026-05-05 20:39 | 45.73377 | 5.08283 | 802 ft | 32 kts | 356° |
| 2026-05-05 20:39 | 45.73601 | 5.08246 | 802 ft | 24 kts | 1° |
| 2026-05-05 20:40 | 45.73693 | 5.08276 | 802 ft | 15 kts | 33° |
| 2026-05-05 20:40 | 45.73724 | 5.08423 | 801 ft | 18 kts | 102° |
| 2026-05-05 20:40 | 45.73694 | 5.08566 | 797 ft | 16 kts | 107° |
| 2026-05-05 20:40 | 45.73623 | 5.08719 | 792 ft | 20 kts | 164° |
| 2026-05-05 20:41 | 45.73520 | 5.08730 | 793 ft | 27 kts | 175° |
| 2026-05-05 20:41 | 45.73010 | 5.08797 | 799 ft | 116 kts | 175° |
| 2026-05-05 20:41 | 45.71977 | 5.08918 | 943 ft | 171 kts | 176° |
| 2026-05-05 20:41 | 45.70728 | 5.09055 | 1703 ft | 189 kts | 175° |
| 2026-05-05 20:42 | 45.69369 | 5.09227 | 2536 ft | 207 kts | 176° |
| 2026-05-05 20:42 | 45.67857 | 5.09421 | 3241 ft | 227 kts | 176° |
| 2026-05-05 20:42 | 45.66307 | 5.09616 | 4134 ft | 235 kts | 176° |
| 2026-05-05 20:42 | 45.64657 | 5.09820 | 5157 ft | 240 kts | 176° |
| 2026-05-05 20:43 | 45.63006 | 5.10022 | 6217 ft | 242 kts | 176° |
| 2026-05-05 20:43 | 45.61322 | 5.10414 | 7062 ft | 255 kts | 160° |
| 2026-05-05 20:43 | 45.59808 | 5.11889 | 7742 ft | 275 kts | 133° |
| 2026-05-05 20:43 | 45.58860 | 5.14295 | 8713 ft | 283 kts | 112° |
| 2026-05-05 20:44 | 45.58309 | 5.17024 | 9727 ft | 289 kts | 105° |
| 2026-05-05 20:44 | 45.57880 | 5.19881 | 10467 ft | 303 kts | 104° |
| 2026-05-05 20:44 | 45.57429 | 5.22939 | 10839 ft | 327 kts | 104° |
| 2026-05-05 20:44 | 45.56917 | 5.26203 | 11319 ft | 343 kts | 105° |
| 2026-05-05 20:45 | 45.55804 | 5.32873 | 13059 ft | 353 kts | 105° |
| 2026-05-05 20:45 | 45.55216 | 5.36307 | 13678 ft | 358 kts | 106° |
| 2026-05-05 20:45 | 45.54621 | 5.39764 | 13866 ft | 360 kts | 106° |
| 2026-05-05 20:46 | 45.54024 | 5.43241 | 13918 ft | 360 kts | 106° |
| 2026-05-05 20:46 | 45.53428 | 5.46716 | 13922 ft | 360 kts | 106° |
| 2026-05-05 20:46 | 45.52834 | 5.50187 | 13919 ft | 360 kts | 106° |
| 2026-05-05 20:46 | 45.52243 | 5.53647 | 13920 ft | 360 kts | 106° |
| 2026-05-05 20:47 | 45.51648 | 5.57137 | 14091 ft | 364 kts | 106° |
| 2026-05-05 20:47 | 45.51126 | 5.60676 | 14879 ft | 366 kts | 100° |
| 2026-05-05 20:47 | 45.50955 | 5.64335 | 15665 ft | 374 kts | 92° |
| 2026-05-05 20:47 | 45.51182 | 5.68016 | 16401 ft | 381 kts | 84° |
| 2026-05-05 20:48 | 45.51550 | 5.71732 | 17144 ft | 386 kts | 85° |
| 2026-05-05 20:48 | 45.51917 | 5.75555 | 17897 ft | 390 kts | 85° |
| 2026-05-05 20:48 | 45.52278 | 5.79407 | 18577 ft | 394 kts | 85° |
| 2026-05-05 20:48 | 45.52641 | 5.83313 | 19256 ft | 398 kts | 85° |
| 2026-05-05 20:49 | 45.53004 | 5.87242 | 19943 ft | 401 kts | 85° |
| 2026-05-05 20:49 | 45.53394 | 5.91200 | 20593 ft | 406 kts | 81° |
| 2026-05-05 20:49 | 45.54305 | 5.94910 | 21210 ft | 415 kts | 65° |
| 2026-05-05 20:49 | 45.55943 | 5.98263 | 21800 ft | 424 kts | 48° |
| 2026-05-05 20:50 | 45.58223 | 6.00987 | 22391 ft | 431 kts | 34° |
| 2026-05-05 20:50 | 45.60806 | 6.03192 | 22818 ft | 435 kts | 29° |
| 2026-05-05 20:50 | 45.63460 | 6.05282 | 22930 ft | 435 kts | 29° |
| 2026-05-05 20:50 | 45.66094 | 6.07409 | 22940 ft | 434 kts | 30° |
| 2026-05-05 20:51 | 45.68700 | 6.09606 | 22934 ft | 434 kts | 31° |
| 2026-05-05 20:51 | 45.71288 | 6.11857 | 22938 ft | 434 kts | 32° |
| 2026-05-05 20:51 | 45.73825 | 6.14101 | 22951 ft | 434 kts | 32° |
| 2026-05-05 20:51 | 45.76389 | 6.16387 | 22953 ft | 434 kts | 32° |
| 2026-05-05 20:52 | 45.78954 | 6.18680 | 22960 ft | 433 kts | 32° |
| 2026-05-05 20:52 | 45.81529 | 6.20983 | 22961 ft | 435 kts | 32° |
| 2026-05-05 20:52 | 45.84096 | 6.23279 | 22959 ft | 435 kts | 32° |
| 2026-05-05 20:52 | 45.86664 | 6.25578 | 22958 ft | 435 kts | 32° |
| 2026-05-05 20:53 | 45.89226 | 6.27876 | 22962 ft | 433 kts | 32° |
| 2026-05-05 20:53 | 45.91775 | 6.30161 | 22957 ft | 436 kts | 32° |
| 2026-05-05 20:53 | 45.94350 | 6.32472 | 22954 ft | 435 kts | 32° |
| 2026-05-05 20:53 | 45.96917 | 6.34779 | 22953 ft | 435 kts | 32° |
| 2026-05-05 20:54 | 45.99006 | 6.36658 | 22953 ft | 436 kts | 32° |
| 2026-05-05 20:54 | 46.01552 | 6.38951 | 22947 ft | 436 kts | 32° |
| 2026-05-05 20:54 | 46.04125 | 6.41269 | 22946 ft | 436 kts | 32° |
| 2026-05-05 20:54 | 46.06704 | 6.43599 | 22935 ft | 437 kts | 32° |
| 2026-05-05 20:55 | 46.09278 | 6.45923 | 22931 ft | 436 kts | 32° |
| 2026-05-05 20:55 | 46.11856 | 6.48255 | 22925 ft | 436 kts | 33° |
| 2026-05-05 20:55 | 46.14427 | 6.50584 | 22925 ft | 436 kts | 33° |
| 2026-05-05 20:55 | 46.16972 | 6.52891 | 22921 ft | 436 kts | 33° |
| 2026-05-05 20:56 | 46.19543 | 6.55224 | 22927 ft | 436 kts | 33° |
| 2026-05-05 20:56 | 46.22098 | 6.57592 | 22926 ft | 435 kts | 36° |
| 2026-05-05 20:56 | 46.24452 | 6.60362 | 22918 ft | 435 kts | 45° |
| 2026-05-05 20:56 | 46.26497 | 6.63549 | 22921 ft | 432 kts | 53° |
| 2026-05-05 20:57 | 46.28275 | 6.66908 | 22916 ft | 432 kts | 54° |
| 2026-05-05 20:57 | 46.30119 | 6.70372 | 22919 ft | 432 kts | 54° |
| 2026-05-05 20:57 | 46.31954 | 6.73804 | 22918 ft | 432 kts | 54° |
| 2026-05-05 20:57 | 46.33792 | 6.77251 | 22916 ft | 432 kts | 54° |
| 2026-05-05 20:58 | 46.35608 | 6.80661 | 22915 ft | 430 kts | 54° |
| 2026-05-05 20:58 | 46.37430 | 6.84096 | 22907 ft | 428 kts | 54° |
| 2026-05-05 20:58 | 46.39252 | 6.87535 | 22922 ft | 432 kts | 54° |
| 2026-05-05 20:58 | 46.41077 | 6.90985 | 22921 ft | 430 kts | 54° |
| 2026-05-05 20:59 | 46.42877 | 6.94391 | 22926 ft | 429 kts | 54° |
| 2026-05-05 20:59 | 46.44504 | 6.97472 | 22921 ft | 428 kts | 54° |
| 2026-05-05 20:59 | 46.46403 | 7.01074 | 22921 ft | 429 kts | 54° |
| 2026-05-05 20:59 | 46.48220 | 7.04526 | 22931 ft | 429 kts | 54° |
| 2026-05-05 21:00 | 46.50029 | 7.07969 | 22927 ft | 428 kts | 54° |
| 2026-05-05 21:00 | 46.51834 | 7.11404 | 22925 ft | 428 kts | 54° |
| 2026-05-05 21:00 | 46.53640 | 7.14846 | 22915 ft | 428 kts | 54° |
| 2026-05-05 21:00 | 46.55450 | 7.18300 | 22908 ft | 427 kts | 54° |
| 2026-05-05 21:01 | 46.57246 | 7.21686 | 22917 ft | 428 kts | 52° |
| 2026-05-05 21:01 | 46.59306 | 7.24813 | 22916 ft | 428 kts | 43° |
| 2026-05-05 21:01 | 46.61573 | 7.27653 | 22913 ft | 431 kts | 42° |
| 2026-05-05 21:01 | 46.63837 | 7.30496 | 22911 ft | 429 kts | 42° |
| 2026-05-05 21:02 | 46.66104 | 7.33356 | 22918 ft | 430 kts | 42° |
| 2026-05-05 21:02 | 46.68265 | 7.36087 | 22911 ft | 430 kts | 42° |
| 2026-05-05 21:02 | 46.70524 | 7.38944 | 22911 ft | 429 kts | 42° |
| 2026-05-05 21:02 | 46.72782 | 7.41802 | 22910 ft | 430 kts | 42° |
| 2026-05-05 21:03 | 46.75037 | 7.44658 | 22907 ft | 429 kts | 42° |
| 2026-05-05 21:03 | 46.77227 | 7.47440 | 22910 ft | 429 kts | 43° |
| 2026-05-05 21:03 | 46.79294 | 7.50523 | 22910 ft | 427 kts | 51° |
| 2026-05-05 21:03 | 46.81141 | 7.53913 | 22910 ft | 426 kts | 53° |
| 2026-05-05 21:04 | 46.82982 | 7.57297 | 22910 ft | 425 kts | 53° |
| 2026-05-05 21:04 | 46.84811 | 7.60643 | 22910 ft | 425 kts | 53° |
| 2026-05-05 21:04 | 46.85713 | 7.62293 | 22910 ft | 425 kts | 53° |
| 2026-05-05 21:05 | 46.87434 | 7.65447 | 22910 ft | 424 kts | 53° |
| 2026-05-05 21:05 | 46.89284 | 7.68846 | 22907 ft | 424 kts | 53° |
| 2026-05-05 21:05 | 46.91115 | 7.72216 | 22909 ft | 424 kts | 53° |
| 2026-05-05 21:05 | 46.92945 | 7.75590 | 22910 ft | 423 kts | 53° |
| 2026-05-05 21:06 | 46.94774 | 7.78970 | 22911 ft | 424 kts | 53° |
| 2026-05-05 21:06 | 46.96583 | 7.82315 | 22907 ft | 424 kts | 53° |
| 2026-05-05 21:06 | 46.98415 | 7.85705 | 22907 ft | 424 kts | 53° |
| 2026-05-05 21:06 | 47.00243 | 7.89093 | 22916 ft | 425 kts | 53° |
| 2026-05-05 21:07 | 47.02075 | 7.92493 | 22918 ft | 424 kts | 53° |
| 2026-05-05 21:07 | 47.03916 | 7.95913 | 22921 ft | 425 kts | 53° |
| 2026-05-05 21:07 | 47.05744 | 7.99315 | 22910 ft | 425 kts | 53° |
| 2026-05-05 21:07 | 47.07674 | 8.02607 | 22910 ft | 426 kts | 46° |
| 2026-05-05 21:08 | 47.09796 | 8.05577 | 22910 ft | 426 kts | 44° |
| 2026-05-05 21:08 | 47.11906 | 8.08521 | 22912 ft | 426 kts | 45° |
| 2026-05-05 21:08 | 47.14045 | 8.11523 | 22909 ft | 426 kts | 45° |
| 2026-05-05 21:08 | 47.16195 | 8.14548 | 22911 ft | 426 kts | 45° |
| 2026-05-05 21:09 | 47.18320 | 8.17539 | 22914 ft | 425 kts | 44° |
| 2026-05-05 21:09 | 47.20695 | 8.20121 | 22918 ft | 426 kts | 28° |
| 2026-05-05 21:09 | 47.23446 | 8.21715 | 22891 ft | 423 kts | 13° |
| 2026-05-05 21:09 | 47.26289 | 8.22189 | 22798 ft | 412 kts | 356° |
| 2026-05-05 21:10 | 47.29034 | 8.21569 | 22448 ft | 402 kts | 340° |
| 2026-05-05 21:10 | 47.30674 | 8.20604 | 22087 ft | 397 kts | 329° |
| 2026-05-05 21:10 | 47.32973 | 8.18477 | 21526 ft | 391 kts | 322° |
| 2026-05-05 21:10 | 47.35200 | 8.16240 | 20978 ft | 388 kts | 323° |
| 2026-05-05 21:11 | 47.37530 | 8.14139 | 20430 ft | 387 kts | 331° |
| 2026-05-05 21:11 | 47.40062 | 8.12931 | 19899 ft | 389 kts | 349° |
| 2026-05-05 21:11 | 47.42778 | 8.12933 | 19376 ft | 389 kts | 8° |
| 2026-05-05 21:11 | 47.45341 | 8.14177 | 18850 ft | 388 kts | 27° |
| 2026-05-05 21:12 | 47.47409 | 8.16422 | 18421 ft | 384 kts | 47° |
| 2026-05-05 21:12 | 47.48883 | 8.19604 | 18262 ft | 368 kts | 68° |
| 2026-05-05 21:12 | 47.49516 | 8.23173 | 18146 ft | 351 kts | 85° |
| 2026-05-05 21:12 | 47.49691 | 8.26703 | 18017 ft | 337 kts | 90° |
| 2026-05-05 21:13 | 47.49767 | 8.30109 | 17848 ft | 327 kts | 91° |
| 2026-05-05 21:13 | 47.49819 | 8.33290 | 17477 ft | 324 kts | 91° |
| 2026-05-05 21:13 | 47.49868 | 8.36580 | 17046 ft | 323 kts | 91° |
| 2026-05-05 21:13 | 47.49928 | 8.39905 | 16611 ft | 322 kts | 87° |
| 2026-05-05 21:14 | 47.50341 | 8.43171 | 16205 ft | 322 kts | 84° |
| 2026-05-05 21:14 | 47.50489 | 8.46452 | 15796 ft | 319 kts | 91° |
| 2026-05-05 21:14 | 47.50538 | 8.49726 | 15393 ft | 317 kts | 91° |
| 2026-05-05 21:14 | 47.50572 | 8.52979 | 15008 ft | 315 kts | 93° |
| 2026-05-05 21:15 | 47.50547 | 8.56225 | 14623 ft | 314 kts | 93° |
| 2026-05-05 21:15 | 47.50514 | 8.59417 | 14265 ft | 312 kts | 93° |
| 2026-05-05 21:15 | 47.50481 | 8.62563 | 14152 ft | 301 kts | 93° |
| 2026-05-05 21:15 | 47.50449 | 8.65609 | 14053 ft | 290 kts | 93° |
| 2026-05-05 21:16 | 47.50419 | 8.68548 | 13800 ft | 283 kts | 93° |
| 2026-05-05 21:16 | 47.50389 | 8.71432 | 13435 ft | 279 kts | 93° |
| 2026-05-05 21:16 | 47.50359 | 8.74277 | 13064 ft | 275 kts | 93° |
| 2026-05-05 21:16 | 47.50331 | 8.77102 | 12691 ft | 271 kts | 93° |
| 2026-05-05 21:17 | 47.50307 | 8.79844 | 12330 ft | 268 kts | 93° |
| 2026-05-05 21:17 | 47.50285 | 8.82590 | 11966 ft | 265 kts | 94° |
| 2026-05-05 21:17 | 47.50267 | 8.85301 | 11583 ft | 264 kts | 94° |
| 2026-05-05 21:17 | 47.50250 | 8.88030 | 11020 ft | 266 kts | 94° |
| 2026-05-05 21:18 | 47.50238 | 8.90772 | 10461 ft | 266 kts | 93° |
| 2026-05-05 21:18 | 47.50230 | 8.93503 | 9900 ft | 265 kts | 93° |
| 2026-05-05 21:18 | 47.49963 | 8.96150 | 9302 ft | 256 kts | 117° |
| 2026-05-05 21:18 | 47.48939 | 8.98204 | 8709 ft | 246 kts | 147° |
| 2026-05-05 21:19 | 47.47971 | 8.99010 | 8318 ft | 240 kts | 165° |
| 2026-05-05 21:19 | 47.45864 | 8.99197 | 7741 ft | 224 kts | 196° |
| 2026-05-05 21:19 | 47.44465 | 8.98263 | 7248 ft | 221 kts | 219° |
| 2026-05-05 21:19 | 47.43500 | 8.96577 | 6940 ft | 209 kts | 246° |
| 2026-05-05 21:20 | 47.43144 | 8.94581 | 6754 ft | 196 kts | 264° |
| 2026-05-05 21:20 | 47.43122 | 8.93265 | 6653 ft | 189 kts | 270° |
| 2026-05-05 21:20 | 47.43213 | 8.91399 | 6431 ft | 177 kts | 273° |
| 2026-05-05 21:20 | 47.43381 | 8.89067 | 6120 ft | 170 kts | 274° |
| 2026-05-05 21:21 | 47.43498 | 8.87421 | 5892 ft | 151 kts | 273° |
| 2026-05-05 21:21 | 47.43572 | 8.86386 | 5746 ft | 153 kts | 273° |
| 2026-05-05 21:21 | 47.43682 | 8.84818 | 5521 ft | 151 kts | 273° |
| 2026-05-05 21:21 | 47.43790 | 8.83303 | 5304 ft | 149 kts | 273° |
| 2026-05-05 21:22 | 47.43899 | 8.81773 | 5089 ft | 148 kts | 273° |
| 2026-05-05 21:22 | 47.44006 | 8.80268 | 4875 ft | 147 kts | 273° |
| 2026-05-05 21:22 | 47.44113 | 8.78767 | 4661 ft | 145 kts | 273° |
| 2026-05-05 21:22 | 47.44219 | 8.77279 | 4445 ft | 147 kts | 273° |
| 2026-05-05 21:23 | 47.44326 | 8.75786 | 4217 ft | 144 kts | 273° |
| 2026-05-05 21:23 | 47.44430 | 8.74303 | 4013 ft | 148 kts | 274° |
| 2026-05-05 21:23 | 47.44539 | 8.72784 | 3797 ft | 150 kts | 274° |
| 2026-05-05 21:23 | 47.44648 | 8.71262 | 3574 ft | 149 kts | 274° |
| 2026-05-05 21:24 | 47.44756 | 8.69730 | 3348 ft | 149 kts | 274° |
| 2026-05-05 21:24 | 47.44867 | 8.68183 | 3131 ft | 152 kts | 274° |
| 2026-05-05 21:24 | 47.44978 | 8.66615 | 2905 ft | 153 kts | 274° |
| 2026-05-05 21:24 | 47.45085 | 8.65118 | 2683 ft | 146 kts | 274° |
| 2026-05-05 21:25 | 47.45192 | 8.63615 | 2449 ft | 146 kts | 275° |
| 2026-05-05 21:25 | 47.45297 | 8.62147 | 2217 ft | 141 kts | 274° |
| 2026-05-05 21:25 | 47.45380 | 8.60778 | 2012 ft | 135 kts | 273° |
| 2026-05-05 21:25 | 47.45498 | 8.59353 | 1799 ft | 137 kts | 276° |
| 2026-05-05 21:26 | 47.45594 | 8.57965 | 1591 ft | 135 kts | 274° |
| 2026-05-05 21:26 | 47.45691 | 8.56659 | 1405 ft | 135 kts | 275° |
| 2026-05-05 21:26 | 47.45765 | 8.55556 | 1399 ft | 67 kts | 276° |
| 2026-05-05 21:26 | 47.45805 | 8.55244 | 1403 ft | 15 kts | 317° |
| 2026-05-05 21:27 | 47.45915 | 8.55156 | 1398 ft | 14 kts | 334° |
| 2026-05-05 21:27 | 47.45975 | 8.55198 | 1396 ft | 11 kts | 69° |
| 2026-05-05 21:27 | 47.45980 | 8.55316 | 1394 ft | 12 kts | 95° |
| 2026-05-05 21:27 | 47.45975 | 8.55445 | 1398 ft | 8 kts | 59° |
| 2026-05-05 21:28 | 47.46009 | 8.55466 | 1398 ft | 0 kts | 11° |
| 2026-05-05 21:28 | 47.46047 | 8.55472 | 1398 ft | 0 kts | 4° |